createdAt,value
2018-05-06T00:02:12.896Z,7.57
2018-05-06T00:04:40.411Z,7.70
2018-05-06T00:07:07.916Z,7.40
2018-05-06T00:09:35.411Z,7.40
2018-05-06T00:12:02.900Z,7.53
2018-05-06T00:14:30.473Z,8.90
2018-05-06T00:16:58.002Z,8.23
2018-05-06T00:19:25.569Z,8.33
2018-05-06T00:21:53.044Z,8.37
2018-05-06T00:24:20.555Z,7.93
2018-05-06T00:26:48.228Z,7.77
2018-05-06T00:29:15.864Z,7.97
2018-05-06T00:31:43.356Z,8.13
2018-05-06T00:34:10.854Z,7.97
2018-05-06T00:36:38.343Z,7.73
2018-05-06T00:39:05.854Z,7.40
2018-05-06T00:41:33.367Z,7.47
2018-05-06T00:44:00.874Z,7.93
2018-05-06T00:46:28.428Z,7.20
2018-05-06T00:48:55.940Z,7.70
2018-05-06T00:51:23.507Z,7.43
2018-05-06T00:53:50.983Z,7.07
2018-05-06T00:56:18.534Z,7.07
2018-05-06T00:58:45.973Z,6.93
2018-05-06T01:01:13.995Z,7.47
2018-05-06T01:03:41.531Z,7.37
2018-05-06T01:06:09.149Z,7.20
2018-05-06T01:08:36.654Z,7.83
2018-05-06T01:11:04.219Z,7.20
2018-05-06T01:13:31.701Z,7.53
2018-05-06T01:15:59.190Z,6.73
2018-05-06T01:18:26.682Z,7.40
2018-05-06T01:20:54.223Z,6.90
2018-05-06T01:23:21.763Z,7.97
2018-05-06T01:25:49.241Z,7.03
2018-05-06T01:28:16.789Z,7.20
2018-05-06T01:30:44.295Z,7.57
2018-05-06T01:33:11.928Z,7.43
2018-05-06T01:35:39.420Z,8.13
2018-05-06T01:38:06.903Z,7.80
2018-05-06T01:40:34.383Z,7.53
2018-05-06T01:43:01.858Z,7.23
2018-05-06T01:45:29.472Z,7.53
2018-05-06T01:47:56.962Z,8.00
2018-05-06T01:50:24.439Z,7.43
2018-05-06T01:52:52.055Z,7.60
2018-05-06T01:55:19.595Z,7.40
2018-05-06T01:57:47.092Z,8.07
2018-05-06T02:00:14.832Z,7.93
2018-05-06T02:02:42.320Z,8.67
2018-05-06T02:05:10.228Z,7.57
2018-05-06T02:07:37.710Z,7.37
2018-05-06T02:10:05.193Z,7.17
2018-05-06T02:12:32.679Z,8.27
2018-05-06T02:15:00.178Z,8.50
2018-05-06T02:17:27.663Z,9.03
2018-05-06T02:19:55.160Z,8.93
2018-05-06T02:22:22.649Z,9.53
2018-05-06T02:24:50.169Z,9.50
2018-05-06T02:27:17.662Z,9.80
2018-05-06T02:29:45.157Z,10.03
2018-05-06T02:32:12.712Z,9.97
2018-05-06T02:34:40.272Z,9.87
2018-05-06T02:37:07.943Z,15.47
2018-05-06T02:39:35.462Z,13.10
2018-05-06T02:42:02.973Z,11.53
2018-05-06T02:44:30.523Z,10.60
2018-05-06T02:46:58.013Z,11.27
2018-05-06T02:49:25.516Z,11.70
2018-05-06T02:51:53.448Z,12.80
2018-05-06T02:54:21.036Z,10.83
2018-05-06T02:56:48.799Z,12.70
2018-05-06T02:59:16.310Z,12.50
2018-05-06T03:01:43.860Z,19.10
2018-05-06T03:04:11.472Z,12.03
2018-05-06T03:06:39.018Z,12.53
2018-05-06T03:09:06.564Z,12.30
2018-05-06T03:11:34.067Z,9.73
2018-05-06T03:14:01.577Z,10.63
2018-05-06T03:16:29.132Z,11.03
2018-05-06T03:18:56.652Z,10.83
2018-05-06T03:21:24.143Z,28.37
2018-05-06T03:23:51.627Z,17.13
2018-05-06T03:26:19.127Z,11.60
2018-05-06T03:28:46.627Z,15.63
2018-05-06T03:31:14.137Z,19.50
2018-05-06T03:33:41.649Z,13.57
2018-05-06T03:36:09.151Z,12.27
2018-05-06T03:38:36.668Z,12.73
2018-05-06T03:41:04.209Z,10.83
2018-05-06T03:43:31.791Z,12.17
2018-05-06T03:45:59.664Z,10.97
2018-05-06T03:48:27.155Z,11.77
2018-05-06T03:50:54.673Z,14.57
2018-05-06T03:53:22.157Z,15.13
2018-05-06T03:56:08.368Z,12.50
2018-05-06T03:58:41.748Z,15.97
2018-05-06T04:01:09.190Z,21.10
2018-05-06T04:03:36.730Z,19.07
2018-05-06T04:06:04.251Z,15.80
2018-05-06T04:08:31.770Z,13.63
2018-05-06T04:10:59.288Z,12.33
2018-05-06T04:13:28.064Z,11.90
2018-05-06T04:15:55.561Z,12.40
2018-05-06T04:18:23.060Z,11.33
2018-05-06T04:20:50.614Z,12.50
2018-05-06T04:23:18.136Z,12.60
2018-05-06T04:25:45.673Z,10.97
2018-05-06T04:28:13.161Z,13.13
2018-05-06T04:30:40.725Z,11.63
2018-05-06T04:33:08.228Z,10.80
2018-05-06T04:35:35.719Z,10.63
2018-05-06T04:38:03.247Z,10.30
2018-05-06T04:40:30.734Z,11.33
2018-05-06T04:42:58.216Z,11.73
2018-05-06T04:45:26.708Z,11.37
2018-05-06T04:47:54.208Z,11.73
2018-05-06T04:50:21.705Z,11.07
2018-05-06T04:52:49.206Z,12.20
2018-05-06T04:55:16.713Z,14.77
2018-05-06T04:57:44.282Z,11.93
2018-05-06T05:00:11.790Z,12.37
2018-05-06T05:02:39.291Z,12.00
2018-05-06T05:05:06.855Z,12.30
2018-05-06T05:07:34.308Z,13.03
2018-05-06T05:10:01.855Z,12.83
2018-05-06T05:12:29.366Z,12.97
2018-05-06T05:14:56.900Z,13.47
2018-05-06T05:17:24.712Z,13.23
2018-05-06T05:19:52.198Z,12.67
2018-05-06T05:22:19.683Z,13.90
2018-05-06T05:24:47.173Z,13.33
2018-05-06T05:27:14.680Z,13.33
2018-05-06T05:29:42.392Z,13.97
2018-05-06T05:32:10.050Z,13.00
2018-05-06T05:34:37.650Z,13.07
2018-05-06T05:37:05.150Z,12.87
2018-05-06T05:39:32.653Z,13.40
2018-05-06T05:42:00.151Z,12.83
2018-05-06T05:44:27.640Z,13.50
2018-05-06T05:46:55.134Z,14.17
2018-05-06T05:49:22.671Z,13.67
2018-05-06T05:51:50.175Z,12.67
2018-05-06T05:54:17.662Z,14.23
2018-05-06T05:56:45.168Z,14.43
2018-05-06T05:59:12.667Z,13.73
2018-05-06T06:01:40.170Z,15.20
2018-05-06T06:04:07.881Z,15.63
2018-05-06T06:06:35.393Z,14.23
2018-05-06T06:09:02.947Z,14.00
2018-05-06T06:11:30.440Z,14.93
2018-05-06T06:13:57.942Z,14.97
2018-05-06T06:16:25.434Z,14.77
2018-05-06T06:18:52.982Z,15.37
2018-05-06T06:21:20.938Z,14.87
2018-05-06T06:23:48.453Z,15.27
2018-05-06T06:26:15.944Z,14.50
2018-05-06T06:28:43.444Z,15.43
2018-05-06T06:31:10.940Z,15.00
2018-05-06T06:33:38.506Z,14.80
2018-05-06T06:36:06.170Z,13.20
2018-05-06T06:38:33.669Z,14.00
2018-05-06T06:41:01.149Z,13.10
2018-05-06T06:43:28.639Z,14.03
2018-05-06T06:45:56.151Z,13.37
2018-05-06T06:48:23.673Z,13.07
2018-05-06T06:50:51.171Z,11.67
2018-05-06T06:53:18.715Z,13.00
2018-05-06T06:55:46.358Z,12.93
2018-05-06T06:58:13.814Z,13.40
2018-05-06T07:00:41.319Z,12.77
2018-05-06T07:03:08.816Z,12.57
2018-05-06T07:05:36.319Z,13.00
2018-05-06T07:08:03.820Z,12.43
2018-05-06T07:10:31.320Z,11.30
2018-05-06T07:12:58.827Z,12.07
2018-05-06T07:15:26.337Z,12.30
2018-05-06T07:17:53.923Z,11.47
2018-05-06T07:20:21.428Z,10.30
2018-05-06T07:22:48.948Z,10.37
2018-05-06T07:25:16.524Z,11.07
2018-05-06T07:27:44.040Z,10.17
2018-05-06T07:30:11.528Z,10.20
2018-05-06T07:32:39.044Z,9.20
2018-05-06T07:35:06.525Z,9.60
2018-05-06T07:37:34.019Z,9.53
2018-05-06T07:40:01.513Z,9.13
2018-05-06T07:42:29.029Z,9.60
2018-05-06T07:44:56.527Z,9.00
2018-05-06T07:47:24.015Z,8.97
2018-05-06T07:49:51.516Z,9.43
2018-05-06T07:52:19.186Z,9.10
2018-05-06T07:54:46.675Z,9.80
2018-05-06T07:57:14.215Z,9.47
2018-05-06T07:59:41.706Z,9.77
2018-05-06T08:02:09.589Z,8.93
2018-05-06T08:04:37.092Z,9.10
2018-05-06T08:07:04.703Z,9.33
2018-05-06T08:09:32.223Z,9.47
2018-05-06T08:11:59.766Z,9.60
2018-05-06T08:14:27.266Z,8.87
2018-05-06T08:16:54.868Z,8.00
2018-05-06T08:19:22.360Z,8.37
2018-05-06T08:21:49.910Z,9.03
2018-05-06T08:24:17.409Z,8.53
2018-05-06T08:26:44.932Z,8.63
2018-05-06T08:29:12.464Z,8.90
2018-05-06T08:31:40.043Z,8.50
2018-05-06T08:34:07.550Z,8.57
2018-05-06T08:36:35.039Z,8.60
2018-05-06T08:39:02.598Z,9.30
2018-05-06T08:41:30.132Z,8.67
2018-05-06T08:43:57.607Z,8.43
2018-05-06T08:46:25.075Z,8.10
2018-05-06T08:48:52.582Z,8.53
2018-05-06T08:51:20.067Z,8.47
2018-05-06T08:53:47.583Z,8.60
2018-05-06T08:56:15.073Z,8.03
2018-05-06T08:58:42.619Z,8.60
2018-05-06T09:01:10.245Z,8.97
2018-05-06T09:03:37.775Z,9.20
2018-05-06T09:06:05.259Z,8.63
2018-05-06T09:08:32.753Z,7.97
2018-05-06T09:11:00.235Z,9.17
2018-05-06T09:13:27.734Z,9.37
2018-05-06T09:15:55.240Z,9.17
2018-05-06T09:18:22.753Z,8.67
2018-05-06T09:20:50.238Z,8.73
2018-05-06T09:23:17.724Z,9.20
2018-05-06T09:25:45.229Z,8.33
2018-05-06T09:28:12.712Z,9.33
2018-05-06T09:30:40.269Z,8.60
2018-05-06T09:33:07.864Z,7.90
2018-05-06T09:35:35.359Z,9.70
2018-05-06T09:38:02.890Z,8.77
2018-05-06T09:40:30.381Z,8.73
2018-05-06T09:42:57.923Z,9.23
2018-05-06T09:45:25.397Z,9.03
2018-05-06T09:47:52.897Z,8.40
2018-05-06T09:50:20.411Z,8.77
2018-05-06T09:52:47.918Z,8.63
2018-05-06T09:55:15.423Z,8.20
2018-05-06T09:57:42.922Z,9.07
2018-05-06T10:00:10.499Z,11.77
2018-05-06T10:02:38.013Z,8.67
2018-05-06T10:05:05.575Z,8.63
2018-05-06T10:07:33.068Z,8.97
2018-05-06T10:10:00.567Z,8.47
2018-05-06T10:12:28.048Z,8.77
2018-05-06T10:14:55.532Z,9.20
2018-05-06T10:17:23.022Z,8.60
2018-05-06T10:19:50.523Z,8.87
2018-05-06T10:22:18.243Z,8.47
2018-05-06T10:24:45.682Z,8.33
2018-05-06T10:27:13.155Z,9.03
2018-05-06T10:29:40.628Z,8.80
2018-05-06T10:32:08.104Z,9.00
2018-05-06T10:34:35.612Z,9.93
2018-05-06T10:37:03.723Z,9.47
2018-05-06T10:39:31.396Z,14.20
2018-05-06T10:41:58.896Z,9.70
2018-05-06T10:44:26.387Z,9.53
2018-05-06T10:46:54.162Z,10.33
2018-05-06T10:49:21.670Z,9.40
2018-05-06T10:51:49.467Z,9.03
2018-05-06T10:54:17.075Z,9.67
2018-05-06T10:56:44.582Z,9.70
2018-05-06T10:59:12.120Z,10.03
2018-05-06T11:01:39.624Z,9.10
2018-05-06T11:04:07.381Z,8.97
2018-05-06T11:06:35.143Z,9.07
2018-05-06T11:09:02.836Z,10.17
2018-05-06T11:11:30.372Z,8.77
2018-05-06T11:13:57.907Z,9.80
2018-05-06T11:16:25.762Z,9.43
2018-05-06T11:18:53.334Z,9.37
2018-05-06T11:21:20.847Z,10.07
2018-05-06T11:23:48.520Z,9.17
2018-05-06T11:26:16.240Z,10.07
2018-05-06T11:28:43.712Z,9.37
2018-05-06T11:31:11.218Z,9.10
2018-05-06T11:33:38.818Z,9.37
2018-05-06T11:36:06.396Z,9.37
2018-05-06T11:38:33.911Z,9.47
2018-05-06T11:41:01.955Z,9.27
2018-05-06T11:43:29.483Z,9.00
2018-05-06T11:45:56.993Z,9.60
2018-05-06T11:48:24.476Z,15.60
2018-05-06T11:50:51.967Z,10.93
2018-05-06T11:53:19.468Z,14.80
2018-05-06T11:55:46.971Z,10.17
2018-05-06T11:58:14.499Z,9.13
2018-05-06T12:00:42.044Z,9.27
2018-05-06T12:03:09.549Z,9.33
2018-05-06T12:05:37.091Z,8.93
2018-05-06T12:08:04.586Z,9.00
2018-05-06T12:10:32.108Z,9.40
2018-05-06T12:12:59.650Z,8.83
2018-05-06T12:15:27.151Z,8.83
2018-05-06T12:17:54.657Z,8.37
2018-05-06T12:20:22.164Z,7.93
2018-05-06T12:22:49.846Z,8.70
2018-05-06T12:25:17.346Z,8.50
2018-05-06T12:27:44.843Z,8.70
2018-05-06T12:30:12.808Z,8.60
2018-05-06T12:32:40.656Z,8.20
2018-05-06T12:35:08.171Z,9.30
2018-05-06T12:37:35.687Z,9.73
2018-05-06T12:40:03.665Z,9.10
2018-05-06T12:42:31.225Z,7.93
2018-05-06T12:44:58.759Z,8.63
2018-05-06T12:47:26.301Z,8.43
2018-05-06T12:49:54.080Z,8.50
2018-05-06T12:52:21.689Z,8.53
2018-05-06T12:54:49.386Z,7.60
2018-05-06T12:57:16.859Z,7.83
2018-05-06T12:59:44.338Z,7.80
2018-05-06T13:02:11.827Z,8.43
2018-05-06T13:04:39.308Z,8.07
2018-05-06T13:07:06.884Z,7.97
2018-05-06T13:09:34.355Z,7.03
2018-05-06T13:12:02.765Z,8.20
2018-05-06T13:14:30.245Z,8.17
2018-05-06T13:16:57.783Z,7.87
2018-05-06T13:19:25.260Z,7.77
2018-05-06T13:21:52.763Z,8.20
2018-05-06T13:24:20.245Z,7.97
2018-05-06T13:26:47.792Z,7.97
2018-05-06T13:29:15.283Z,7.53
2018-05-06T13:31:42.818Z,7.93
2018-05-06T13:34:10.313Z,7.47
2018-05-06T13:36:37.804Z,7.10
2018-05-06T13:39:05.308Z,6.80
2018-05-06T13:41:32.885Z,6.87
2018-05-06T13:44:00.426Z,7.27
2018-05-06T13:46:27.904Z,6.90
2018-05-06T13:48:55.464Z,7.70
2018-05-06T13:51:22.996Z,6.60
2018-05-06T13:53:50.521Z,6.53
2018-05-06T13:56:18.017Z,6.70
2018-05-06T13:58:45.510Z,7.10
2018-05-06T14:01:13.002Z,7.07
2018-05-06T14:03:40.477Z,6.80
2018-05-06T14:06:07.964Z,7.00
2018-05-06T14:08:35.508Z,7.40
2018-05-06T14:11:03.014Z,6.57
2018-05-06T14:13:30.488Z,6.40
2018-05-06T14:15:58.000Z,7.13
2018-05-06T14:18:25.502Z,6.23
2018-05-06T14:20:53.514Z,6.93
2018-05-06T14:23:21.009Z,6.87
2018-05-06T14:25:48.504Z,6.57
2018-05-06T14:28:16.013Z,6.47
2018-05-06T14:30:43.488Z,7.00
2018-05-06T14:33:10.964Z,6.43
2018-05-06T14:35:38.457Z,6.73
2018-05-06T14:38:05.938Z,6.47
2018-05-06T14:40:33.488Z,6.53
2018-05-06T14:43:01.041Z,7.03
2018-05-06T14:45:28.523Z,6.97
2018-05-06T14:48:01.777Z,5.90
2018-05-06T14:50:29.316Z,6.07
2018-05-06T14:52:56.848Z,6.47
2018-05-06T14:55:24.329Z,7.10
2018-05-06T14:57:51.820Z,6.03
2018-05-06T15:00:19.338Z,7.23
2018-05-06T15:02:46.824Z,7.07
2018-05-06T15:05:14.306Z,6.37
2018-05-06T15:07:41.792Z,7.07
2018-05-06T15:10:09.327Z,6.40
2018-05-06T15:12:36.875Z,6.37
2018-05-06T15:15:04.379Z,6.77
2018-05-06T15:17:31.868Z,6.63
2018-05-06T15:19:59.342Z,6.70
2018-05-06T15:22:26.836Z,7.17
2018-05-06T15:24:54.363Z,6.27
2018-05-06T15:27:21.858Z,7.00
2018-05-06T15:29:49.345Z,6.30
2018-05-06T15:32:16.832Z,6.70
2018-05-06T15:34:44.306Z,6.40
2018-05-06T15:37:11.781Z,5.80
2018-05-06T15:39:39.264Z,6.77
2018-05-06T15:42:06.751Z,6.57
2018-05-06T15:44:34.291Z,6.10
2018-05-06T15:47:01.843Z,6.73
2018-05-06T15:49:29.352Z,6.33
2018-05-06T15:51:56.886Z,7.20
2018-05-06T15:54:24.512Z,7.50
2018-05-06T15:56:52.108Z,6.50
2018-05-06T15:59:19.640Z,6.73
2018-05-06T16:01:53.005Z,6.97
2018-05-06T16:04:20.460Z,11.80
2018-05-06T16:06:47.968Z,6.93
2018-05-06T16:09:15.461Z,6.67
2018-05-06T16:11:43.011Z,6.20
2018-05-06T16:14:10.485Z,6.90
2018-05-06T16:16:37.970Z,6.97
2018-05-06T16:19:05.462Z,7.33
2018-05-06T16:21:33.158Z,7.63
2018-05-06T16:24:00.768Z,7.87
2018-05-06T16:26:28.259Z,7.03
2018-05-06T16:28:56.410Z,7.30
2018-05-06T16:31:23.893Z,7.10
2018-05-06T16:33:51.376Z,6.30
2018-05-06T16:36:18.877Z,7.47
2018-05-06T16:38:46.381Z,7.40
2018-05-06T16:41:13.885Z,7.93
2018-05-06T16:43:41.376Z,7.63
2018-05-06T16:46:08.890Z,6.97
2018-05-06T16:48:36.432Z,7.90
2018-05-06T16:51:03.979Z,8.80
2018-05-06T16:53:31.458Z,7.17
2018-05-06T16:55:59.019Z,8.03
2018-05-06T16:58:26.528Z,7.77
2018-05-06T17:00:54.556Z,7.03
2018-05-06T17:03:22.049Z,7.03
2018-05-06T17:05:49.609Z,8.17
2018-05-06T17:08:17.168Z,7.93
2018-05-06T17:10:44.663Z,8.10
2018-05-06T17:13:12.227Z,7.57
2018-05-06T17:15:39.700Z,7.57
2018-05-06T17:18:07.221Z,8.07
2018-05-06T17:20:34.738Z,8.30
2018-05-06T17:23:02.240Z,8.57
2018-05-06T17:25:29.719Z,8.17
2018-05-06T17:27:57.231Z,8.53
2018-05-06T17:30:24.725Z,8.17
2018-05-06T17:32:52.383Z,7.63
2018-05-06T17:35:19.886Z,8.40
2018-05-06T17:37:47.575Z,8.73
2018-05-06T17:40:15.075Z,9.00
2018-05-06T17:42:42.883Z,8.00
2018-05-06T17:45:10.371Z,8.80
2018-05-06T17:47:37.868Z,8.07
2018-05-06T17:50:05.409Z,8.50
2018-05-06T17:52:32.956Z,9.03
2018-05-06T17:55:00.449Z,8.70
2018-05-06T17:57:27.987Z,8.97
2018-05-06T17:59:55.511Z,7.83
2018-05-06T18:02:23.007Z,8.70
2018-05-06T18:04:50.552Z,8.60
2018-05-06T18:07:18.031Z,8.73
2018-05-06T18:09:45.540Z,8.90
2018-05-06T18:12:13.029Z,8.60
2018-05-06T18:14:40.628Z,8.50
2018-05-06T18:17:08.125Z,9.20
2018-05-06T18:19:35.675Z,8.87
2018-05-06T18:22:03.198Z,8.47
2018-05-06T18:24:30.688Z,9.00
2018-05-06T18:26:58.183Z,9.03
2018-05-06T18:29:25.664Z,8.57
2018-05-06T18:31:53.163Z,8.60
2018-05-06T18:34:20.652Z,8.87
2018-05-06T18:36:48.191Z,8.27
2018-05-06T18:39:15.691Z,7.93
2018-05-06T18:41:43.167Z,8.87
2018-05-06T18:44:10.651Z,8.13
2018-05-06T18:46:38.173Z,7.97
2018-05-06T18:49:05.667Z,8.57
2018-05-06T18:51:33.163Z,8.57
2018-05-06T18:54:00.649Z,8.60
2018-05-06T18:56:28.150Z,8.57
2018-05-06T18:58:55.651Z,8.80
2018-05-06T19:01:23.101Z,8.37
2018-05-06T19:03:50.656Z,8.97
2018-05-06T19:06:18.142Z,8.47
2018-05-06T19:08:46.224Z,9.43
2018-05-06T19:11:13.704Z,9.57
2018-05-06T19:13:41.199Z,9.57
2018-05-06T19:16:08.781Z,9.90
2018-05-06T19:18:36.272Z,8.80
2018-05-06T19:21:03.779Z,8.33
2018-05-06T19:23:31.318Z,9.43
2018-05-06T19:25:58.752Z,9.67
2018-05-06T19:28:26.233Z,9.03
2018-05-06T19:30:53.732Z,9.43
2018-05-06T19:33:21.236Z,9.03
2018-05-06T19:35:48.800Z,9.20
2018-05-06T19:38:16.290Z,9.23
2018-05-06T19:40:43.835Z,9.83
2018-05-06T19:43:11.324Z,9.73
2018-05-06T19:45:38.823Z,9.83
2018-05-06T19:48:06.304Z,10.70
2018-05-06T19:50:33.798Z,10.03
2018-05-06T19:53:01.300Z,10.43
2018-05-06T19:55:28.750Z,8.77
2018-05-06T19:57:56.245Z,9.53
2018-05-06T20:00:23.760Z,9.77
2018-05-06T20:02:51.215Z,9.73
2018-05-06T20:05:18.716Z,9.93
2018-05-06T20:07:46.227Z,9.27
2018-05-06T20:10:13.692Z,8.87
2018-05-06T20:12:41.685Z,10.10
2018-05-06T20:15:09.184Z,9.53
2018-05-06T20:17:36.800Z,9.10
2018-05-06T20:20:04.340Z,8.43
2018-05-06T20:22:31.872Z,8.33
2018-05-06T20:24:59.315Z,9.03
2018-05-06T20:27:26.788Z,8.50
2018-05-06T20:29:54.269Z,7.80
2018-05-06T20:32:21.749Z,8.60
2018-05-06T20:34:49.187Z,8.37
2018-05-06T20:37:16.679Z,9.23
2018-05-06T20:39:44.120Z,8.97
2018-05-06T20:42:11.684Z,9.50
2018-05-06T20:44:39.226Z,8.90
2018-05-06T20:47:06.759Z,8.70
2018-05-06T20:49:34.193Z,9.10
2018-05-06T20:52:01.638Z,8.97
2018-05-06T20:54:29.095Z,9.80
2018-05-06T20:56:56.608Z,8.63
2018-05-06T20:59:24.070Z,8.83
2018-05-06T21:01:51.507Z,9.17
2018-05-06T21:04:18.971Z,9.53
2018-05-06T21:06:46.431Z,10.23
2018-05-06T21:09:13.931Z,9.40
2018-05-06T21:11:41.380Z,9.30
2018-05-06T21:14:08.877Z,9.10
2018-05-06T21:16:37.122Z,9.37
2018-05-06T21:19:04.710Z,9.13
2018-05-06T21:21:32.321Z,9.97
2018-05-06T21:23:59.807Z,9.57
2018-05-06T21:26:27.308Z,8.43
2018-05-06T21:28:54.748Z,8.80
2018-05-06T21:31:22.339Z,8.53
2018-05-06T21:33:49.979Z,8.50
2018-05-06T21:36:17.428Z,9.30
2018-05-06T21:38:44.920Z,9.13
2018-05-06T21:41:12.360Z,8.93
2018-05-06T21:43:39.860Z,9.53
2018-05-06T21:46:07.305Z,9.03
2018-05-06T21:48:35.436Z,8.77
2018-05-06T21:51:02.941Z,8.80
2018-05-06T21:53:30.435Z,8.80
2018-05-06T21:55:57.923Z,8.73
2018-05-06T21:58:25.411Z,9.33
2018-05-06T22:00:52.920Z,9.10
2018-05-06T22:03:20.451Z,9.20
2018-05-06T22:05:47.882Z,9.07
2018-05-06T22:08:15.330Z,8.83
2018-05-06T22:10:42.785Z,8.37
2018-05-06T22:13:10.301Z,8.17
2018-05-06T22:15:37.756Z,8.83
2018-05-06T22:18:05.203Z,9.00
2018-05-06T22:20:33.360Z,7.57
2018-05-06T22:23:00.919Z,8.60
2018-05-06T22:25:28.359Z,8.60
2018-05-06T22:27:55.795Z,9.10
2018-05-06T22:30:23.236Z,8.37
2018-05-06T22:32:50.676Z,8.63
2018-05-06T22:35:18.117Z,8.17
2018-05-06T22:37:45.591Z,8.43
2018-05-06T22:40:13.067Z,8.80
2018-05-06T22:42:40.503Z,8.97
2018-05-06T22:45:07.945Z,8.60
2018-05-06T22:47:35.399Z,8.37
2018-05-06T22:50:02.951Z,8.10
2018-05-06T22:52:30.449Z,8.77
2018-05-06T22:54:57.947Z,8.40
2018-05-06T22:57:25.508Z,8.77
2018-05-06T22:59:52.992Z,8.40
2018-05-06T23:02:20.434Z,8.63
2018-05-06T23:04:47.954Z,8.87
2018-05-06T23:07:15.449Z,8.80
2018-05-06T23:09:42.945Z,8.40
2018-05-06T23:12:10.472Z,9.83
2018-05-06T23:14:37.959Z,8.93
2018-05-06T23:17:05.435Z,8.10
2018-05-06T23:19:32.980Z,8.47
2018-05-06T23:22:00.528Z,8.43
2018-05-06T23:24:28.067Z,8.57
2018-05-06T23:26:55.561Z,8.57
2018-05-06T23:29:23.048Z,8.63
2018-05-06T23:31:50.555Z,8.27
2018-05-06T23:34:18.036Z,8.90
2018-05-06T23:36:45.526Z,8.40
2018-05-06T23:39:13.003Z,8.03
2018-05-06T23:41:40.501Z,8.57
2018-05-06T23:44:07.979Z,8.30
2018-05-06T23:46:35.476Z,8.07
2018-05-06T23:49:02.975Z,8.60
2018-05-06T23:51:30.480Z,8.80
2018-05-06T23:53:57.983Z,9.80
2018-05-06T23:56:25.598Z,11.50
2018-05-06T23:58:53.121Z,10.70
